Time;durP1;ratioP1;P1;durP2;ratioP2;P2;SDS_P1;SDS_P2;PMS_P1;PMS_P2;Temp;Humidity;BMP_temperature;BMP_pressure;BME280_temperature;BME280_humidity;BME280_pressure;Samples;Min_cycle;Max_cycle;Signal;HPM_P1;HPM_P2
2024/04/13 00:01:33;;;;;;;17.48;4.30;;;17.40;79.60;;;;;;5458753;26;19995;-58
2024/04/13 00:03:59;;;;;;;9.63;3.35;;;17.40;79.80;;;;;;5461315;26;20013;-59
2024/04/13 00:06:26;;;;;;;13.63;3.75;;;17.30;79.80;;;;;;5453833;26;19994;-58
2024/04/13 00:08:55;;;;;;;9.82;3.38;;;17.30;79.90;;;;;;5449856;26;20463;-59
2024/04/13 00:11:21;;;;;;;12.50;3.67;;;17.30;79.90;;;;;;5497303;26;20429;-58
2024/04/13 00:13:49;;;;;;;15.45;3.85;;;17.30;80.00;;;;;;5489429;26;20076;-58
2024/04/13 00:16:15;;;;;;;15.90;4.30;;;17.20;80.00;;;;;;5431844;26;19991;-59
2024/04/13 00:18:41;;;;;;;12.70;3.90;;;17.20;80.10;;;;;;5427963;26;20407;-59
2024/04/13 00:21:06;;;;;;;10.02;3.58;;;17.20;80.20;;;;;;5456433;26;20003;-58
2024/04/13 00:23:32;;;;;;;9.60;3.47;;;17.10;80.30;;;;;;5428585;26;20006;-59
2024/04/13 00:25:58;;;;;;;12.55;4.28;;;17.10;80.40;;;;;;5487027;26;20007;-58
2024/04/13 00:28:23;;;;;;;11.98;3.83;;;17.10;80.40;;;;;;5486927;26;20010;-58
2024/04/13 00:30:49;;;;;;;14.23;4.40;;;17.00;80.50;;;;;;5428303;26;19995;-59
2024/04/13 00:33:15;;;;;;;13.20;3.65;;;17.00;80.50;;;;;;5456233;26;20265;-59
2024/04/13 00:35:40;;;;;;;10.35;3.60;;;17.00;80.60;;;;;;5428302;26;19992;-58
2024/04/13 00:38:06;;;;;;;9.90;3.80;;;17.00;80.70;;;;;;5428348;26;20006;-58
2024/04/13 00:40:32;;;;;;;11.50;3.55;;;16.90;80.80;;;;;;5456123;26;20003;-58
2024/04/13 00:43:11;;;;;;;13.88;3.95;;;16.90;80.90;;;;;;5486667;26;20014;-58
2024/04/13 00:45:46;;;;;;;8.45;3.53;;;16.90;80.80;;;;;;5455935;26;19996;-58
2024/04/13 00:48:14;;;;;;;9.15;3.80;;;16.80;80.90;;;;;;5483433;26;20329;-58
2024/04/13 00:50:40;;;;;;;13.38;3.95;;;16.80;81.00;;;;;;5456158;26;19991;-58
2024/04/13 00:53:07;;;;;;;7.95;3.45;;;16.80;81.10;;;;;;5426135;26;20422;-58
2024/04/13 00:55:33;;;;;;;7.13;3.28;;;16.80;81.20;;;;;;5455587;26;20010;-58
2024/04/13 00:57:59;;;;;;;9.88;3.35;;;16.80;81.30;;;;;;5486214;26;20011;-59
2024/04/13 01:00:25;;;;;;;12.70;3.80;;;16.70;81.20;;;;;;5455664;26;20055;-58
2024/04/13 01:02:51;;;;;;;8.02;3.03;;;16.70;81.20;;;;;;5427972;26;20000;-58
2024/04/13 01:05:18;;;;;;;6.20;3.15;;;16.70;81.20;;;;;;5427759;26;20007;-58
2024/04/13 01:07:46;;;;;;;9.88;3.17;;;16.70;81.30;;;;;;5427631;26;20011;-58
2024/04/13 01:10:14;;;;;;;9.13;3.00;;;16.70;81.30;;;;;;5455401;26;20099;-58
2024/04/13 01:12:43;;;;;;;9.98;3.38;;;16.70;81.40;;;;;;5485464;26;20399;-58
2024/04/13 01:15:08;;;;;;;8.45;3.20;;;16.60;81.50;;;;;;5455076;26;19995;-58
2024/04/13 01:17:36;;;;;;;13.05;3.72;;;16.60;81.60;;;;;;5455965;26;19999;-58
2024/04/13 01:20:03;;;;;;;10.05;3.75;;;16.60;81.70;;;;;;5455164;26;19991;-58
2024/04/13 01:22:28;;;;;;;12.43;3.50;;;16.50;81.70;;;;;;5427751;26;20089;-58
2024/04/13 01:24:54;;;;;;;7.13;2.83;;;16.50;81.80;;;;;;5486012;26;20445;-58
2024/04/13 01:27:21;;;;;;;7.72;3.17;;;16.50;82.00;;;;;;5486008;26;20031;-58
2024/04/13 01:29:46;;;;;;;6.38;3.20;;;16.40;82.00;;;;;;5485294;26;20009;-58
2024/04/13 01:32:13;;;;;;;4.57;2.60;;;16.40;82.10;;;;;;5427545;26;20494;-58
2024/04/13 01:34:38;;;;;;;11.95;3.30;;;16.40;82.10;;;;;;5485336;26;20006;-58
2024/04/13 01:37:07;;;;;;;6.20;2.90;;;16.40;82.20;;;;;;5485881;26;19995;-58
2024/04/13 01:39:32;;;;;;;8.95;3.00;;;16.40;82.30;;;;;;5454792;26;19991;-58
2024/04/13 01:41:58;;;;;;;5.90;2.97;;;16.30;82.40;;;;;;5427532;26;20093;-58
2024/04/13 01:44:23;;;;;;;6.05;3.30;;;16.30;82.40;;;;;;5427281;26;20019;-58
2024/04/13 01:46:49;;;;;;;7.15;3.20;;;16.30;82.50;;;;;;5427157;26;20014;-59
2024/04/13 01:49:15;;;;;;;5.68;3.20;;;16.30;82.60;;;;;;5485462;26;20002;-58
2024/04/13 01:51:40;;;;;;;6.97;3.20;;;16.20;82.60;;;;;;5455033;26;20031;-58
2024/04/13 01:54:06;;;;;;;6.43;3.40;;;16.20;82.70;;;;;;5485509;26;20072;-58
2024/04/13 01:56:32;;;;;;;5.25;2.97;;;16.20;82.70;;;;;;5485611;26;19999;-58
2024/04/13 01:58:58;;;;;;;5.80;3.00;;;16.20;82.80;;;;;;5426957;26;20442;-58
2024/04/13 02:01:24;;;;;;;5.43;2.90;;;16.20;82.70;;;;;;5454999;26;19996;-58
2024/04/13 02:03:49;;;;;;;9.80;3.20;;;16.20;82.70;;;;;;5454937;26;20000;-58
2024/04/13 02:06:15;;;;;;;8.25;2.95;;;16.20;82.80;;;;;;5426886;26;20045;-58
2024/04/13 02:08:41;;;;;;;4.53;3.20;;;16.10;82.90;;;;;;5485464;26;20409;-58
2024/04/13 02:11:06;;;;;;;4.63;3.22;;;16.10;83.00;;;;;;5485470;26;20294;-58
2024/04/13 02:13:35;;;;;;;5.93;3.20;;;16.10;83.10;;;;;;5485153;26;20053;-58
2024/04/13 02:16:01;;;;;;;7.60;3.28;;;16.00;83.10;;;;;;5454672;26;20061;-58
2024/04/13 02:18:27;;;;;;;4.75;2.67;;;16.00;83.20;;;;;;5454817;26;19999;-58
2024/04/13 02:20:53;;;;;;;6.50;2.90;;;16.00;83.20;;;;;;5488723;26;20007;-58
2024/04/13 02:23:18;;;;;;;6.53;3.03;;;16.00;83.30;;;;;;5458325;26;20384;-58
2024/04/13 02:25:49;;;;;;;7.45;3.40;;;15.90;83.30;;;;;;5458182;26;20008;-59
2024/04/13 02:28:15;;;;;;;6.90;2.90;;;15.90;83.40;;;;;;5457821;26;20041;-58
2024/04/13 02:30:42;;;;;;;4.88;2.83;;;15.90;83.40;;;;;;5430020;26;20129;-58
2024/04/13 02:33:08;;;;;;;3.75;2.90;;;15.90;83.50;;;;;;5458280;26;20003;-58
2024/04/13 02:35:33;;;;;;;5.78;3.00;;;15.90;83.50;;;;;;5551936;25;20009;-58
2024/04/13 02:37:59;;;;;;;7.05;2.38;;;15.90;83.60;;;;;;5502468;26;20005;-58
2024/04/13 02:40:25;;;;;;;7.78;3.30;;;15.80;83.60;;;;;;5500609;26;19991;-58
2024/04/13 02:42:53;;;;;;;5.45;3.22;;;15.80;83.70;;;;;;5502661;26;19998;-58
2024/04/13 02:45:19;;;;;;;7.00;2.95;;;15.80;83.60;;;;;;5502467;26;20025;-58
2024/04/13 02:47:45;;;;;;;3.97;2.67;;;15.80;83.70;;;;;;5502482;26;20002;-58
2024/04/13 02:50:11;;;;;;;6.88;2.75;;;15.80;83.70;;;;;;5500076;26;19994;-58
2024/04/13 02:52:37;;;;;;;7.80;2.90;;;15.80;83.80;;;;;;5502177;26;19998;-58
2024/04/13 02:55:07;;;;;;;10.13;3.22;;;15.80;83.90;;;;;;5500265;26;19994;-58
2024/04/13 02:57:32;;;;;;;3.83;2.42;;;15.70;83.80;;;;;;5471022;26;20013;-58
2024/04/13 02:59:58;;;;;;;5.68;3.20;;;15.70;83.90;;;;;;5502069;26;20290;-58
2024/04/13 03:02:24;;;;;;;5.20;2.88;;;15.60;84.00;;;;;;5500229;26;20454;-58
2024/04/13 03:04:53;;;;;;;6.05;2.72;;;15.60;84.20;;;;;;5501981;26;19994;-58
2024/04/13 03:07:19;;;;;;;5.28;3.00;;;15.60;84.30;;;;;;5502009;26;20060;-58
2024/04/13 03:09:46;;;;;;;4.38;2.80;;;15.60;84.30;;;;;;5499975;26;20002;-58
2024/04/13 03:12:13;;;;;;;4.32;2.90;;;15.60;84.40;;;;;;5501963;26;20030;-58
2024/04/13 03:14:39;;;;;;;5.90;2.95;;;15.60;84.50;;;;;;5501972;26;19991;-58
2024/04/13 03:17:04;;;;;;;6.70;3.00;;;15.60;84.50;;;;;;5501781;26;20006;-58
2024/04/13 03:19:32;;;;;;;5.80;2.90;;;15.50;84.40;;;;;;5501713;26;19994;-58
2024/04/13 03:21:59;;;;;;;7.13;3.15;;;15.50;84.60;;;;;;5501979;26;20066;-58
2024/04/13 03:24:24;;;;;;;5.03;2.70;;;15.50;84.60;;;;;;5499951;26;20001;-58
2024/04/13 03:26:50;;;;;;;5.18;2.83;;;15.50;84.70;;;;;;5501760;26;20017;-58
2024/04/13 03:29:16;;;;;;;3.50;2.47;;;15.50;84.70;;;;;;5501801;26;20406;-58
2024/04/13 03:31:42;;;;;;;3.92;2.70;;;15.40;84.70;;;;;;5498243;26;20047;-58
2024/04/13 03:34:08;;;;;;;5.43;2.75;;;15.40;84.80;;;;;;5499351;26;20009;-58
2024/04/13 03:36:34;;;;;;;3.53;2.70;;;15.40;84.80;;;;;;5499847;26;19995;-58
2024/04/13 03:39:00;;;;;;;6.07;2.70;;;15.40;84.90;;;;;;5499663;26;20449;-58
2024/04/13 03:41:25;;;;;;;4.60;2.88;;;15.40;84.90;;;;;;5501536;26;19998;-58
2024/04/13 03:43:51;;;;;;;3.50;2.70;;;15.40;85.00;;;;;;5468966;26;20114;-58
2024/04/13 03:46:17;;;;;;;8.57;3.05;;;15.40;85.00;;;;;;5499484;26;20278;-58
2024/04/13 03:48:42;;;;;;;7.10;3.00;;;15.30;85.10;;;;;;5499310;26;20006;-59
2024/04/13 03:51:11;;;;;;;4.05;2.80;;;15.30;85.10;;;;;;5501479;26;20002;-58
2024/04/13 03:53:37;;;;;;;5.57;2.95;;;15.30;85.20;;;;;;5499469;26;20012;-58
2024/04/13 03:56:03;;;;;;;4.10;2.65;;;15.30;85.20;;;;;;5499707;26;20010;-58
2024/04/13 03:58:29;;;;;;;5.25;2.90;;;15.20;85.90;;;;;;5499257;26;19998;-58
2024/04/13 04:00:54;;;;;;;5.15;2.50;;;15.30;85.30;;;;;;5499331;26;20006;-58
2024/04/13 04:03:20;;;;;;;6.18;2.80;;;15.20;85.40;;;;;;5499275;26;20154;-58
2024/04/13 04:05:49;;;;;;;6.40;3.05;;;15.20;85.50;;;;;;5499226;26;19994;-58
2024/04/13 04:08:15;;;;;;;5.72;3.25;;;15.20;85.60;;;;;;5499138;26;20002;-58
2024/04/13 04:10:41;;;;;;;5.22;3.13;;;15.10;85.70;;;;;;5499199;26;19994;-58
2024/04/13 04:13:07;;;;;;;7.75;3.42;;;15.10;85.70;;;;;;5499214;26;20009;-58
2024/04/13 04:15:33;;;;;;;4.22;2.90;;;15.10;85.70;;;;;;5499109;26;20412;-58
2024/04/13 04:17:59;;;;;;;5.32;2.70;;;15.10;85.80;;;;;;5468672;26;20396;-58
2024/04/13 04:20:25;;;;;;;4.60;2.88;;;15.10;85.90;;;;;;5499028;26;19998;-58
2024/04/13 04:22:51;;;;;;;4.32;2.60;;;15.10;85.90;;;;;;5500898;26;20009;-58
2024/04/13 04:25:19;;;;;;;5.68;2.83;;;15.10;86.00;;;;;;5498876;26;20005;-58
2024/04/13 04:27:44;;;;;;;5.82;3.10;;;15.10;86.00;;;;;;5444751;26;20047;-58
2024/04/13 04:30:10;;;;;;;9.48;2.80;;;15.00;86.00;;;;;;5436425;26;19996;-59
2024/04/13 04:32:36;;;;;;;7.28;3.28;;;15.00;86.10;;;;;;5486803;26;20003;-58
2024/04/13 04:35:01;;;;;;;5.53;2.90;;;15.00;86.10;;;;;;5428293;26;19996;-58
2024/04/13 04:37:27;;;;;;;5.45;3.20;;;15.00;86.20;;;;;;5489654;26;20010;-58
2024/04/13 04:39:53;;;;;;;5.30;2.90;;;15.00;86.30;;;;;;5462101;26;20002;-58
2024/04/13 04:42:18;;;;;;;5.32;2.78;;;15.00;86.30;;;;;;5461711;26;20061;-58
2024/04/13 04:44:44;;;;;;;4.07;3.03;;;14.90;86.30;;;;;;5462037;26;20009;-58
2024/04/13 04:47:11;;;;;;;5.10;3.00;;;14.90;86.30;;;;;;5431725;26;20010;-58
2024/04/13 04:49:37;;;;;;;7.55;3.17;;;14.90;86.40;;;;;;5461982;26;20027;-58
2024/04/13 04:52:03;;;;;;;3.97;2.75;;;14.90;86.40;;;;;;5464040;26;19987;-58
2024/04/13 04:54:29;;;;;;;5.93;2.95;;;14.90;86.50;;;;;;5492553;26;19991;-58
2024/04/13 04:56:55;;;;;;;7.10;3.22;;;14.90;86.50;;;;;;5461836;26;20013;-58
2024/04/13 04:59:20;;;;;;;6.85;2.85;;;14.90;86.60;;;;;;5463755;26;20015;-58
2024/04/13 05:01:46;;;;;;;7.60;2.90;;;14.90;86.70;;;;;;5462158;26;19994;-58
2024/04/13 05:04:12;;;;;;;5.38;3.03;;;14.80;86.60;;;;;;5432017;26;19995;-58
2024/04/13 05:06:37;;;;;;;4.10;2.75;;;14.80;86.80;;;;;;5462217;26;19991;-59
2024/04/13 05:09:04;;;;;;;5.10;2.85;;;14.80;86.80;;;;;;5431891;26;19999;-58
2024/04/13 05:11:30;;;;;;;4.28;2.65;;;14.80;86.90;;;;;;5491957;26;19991;-58
2024/04/13 05:13:56;;;;;;;5.93;3.03;;;14.80;86.90;;;;;;5463549;26;20414;-58
2024/04/13 05:16:21;;;;;;;4.88;2.63;;;14.80;87.00;;;;;;5463921;26;19990;-58
2024/04/13 05:18:47;;;;;;;4.65;2.97;;;14.80;87.00;;;;;;5462227;26;20064;-58
2024/04/13 05:21:13;;;;;;;5.32;2.63;;;14.80;87.00;;;;;;5461828;26;20417;-58
2024/04/13 05:23:38;;;;;;;9.75;2.85;;;14.80;87.00;;;;;;5431731;26;20040;-58
2024/04/13 05:26:04;;;;;;;5.65;2.83;;;14.80;87.20;;;;;;5461766;26;19991;-58
2024/04/13 05:28:30;;;;;;;4.72;3.08;;;14.80;87.30;;;;;;5461770;26;20009;-58
2024/04/13 05:30:56;;;;;;;7.30;3.22;;;14.70;87.20;;;;;;5491932;26;20074;-58
2024/04/13 05:33:25;;;;;;;6.53;3.05;;;14.70;87.30;;;;;;5463428;26;20022;-58
2024/04/13 05:35:51;;;;;;;7.10;3.10;;;14.80;87.40;;;;;;5492165;26;20044;-58
2024/04/13 05:38:17;;;;;;;7.07;3.03;;;14.70;87.30;;;;;;5463347;26;20006;-58
2024/04/13 05:40:43;;;;;;;9.05;3.47;;;14.70;87.40;;;;;;5492022;26;19990;-58
2024/04/13 05:43:08;;;;;;;9.50;3.08;;;14.70;87.40;;;;;;5461392;26;19995;-58
2024/04/13 05:45:37;;;;;;;17.08;4.32;;;14.70;87.40;;;;;;5463275;26;20006;-58
2024/04/13 05:48:04;;;;;;;13.13;3.88;;;14.70;87.60;;;;;;5463368;26;20027;-58
2024/04/13 05:50:29;;;;;;;10.48;3.45;;;14.70;87.70;;;;;;5461300;26;20033;-58
2024/04/13 05:52:56;;;;;;;14.45;4.15;;;14.70;87.70;;;;;;5462197;26;20026;-58
2024/04/13 05:55:21;;;;;;;13.07;3.75;;;14.60;87.70;;;;;;5460693;26;20010;-58
2024/04/13 05:57:47;;;;;;;13.18;4.60;;;14.70;87.70;;;;;;5463072;26;20018;-58
2024/04/13 06:00:13;;;;;;;14.48;3.95;;;14.70;87.70;;;;;;5463093;26;20464;-58
2024/04/13 06:02:38;;;;;;;15.15;4.30;;;14.70;87.80;;;;;;5463159;26;20006;-58
2024/04/13 06:05:05;;;;;;;15.70;4.63;;;14.70;87.80;;;;;;5491537;26;20003;-58
2024/04/13 06:07:31;;;;;;;12.68;5.05;;;14.70;87.70;;;;;;5461083;26;20023;-58
2024/04/13 06:09:57;;;;;;;14.90;4.70;;;14.70;87.80;;;;;;5462630;26;19999;-58
2024/04/13 06:12:22;;;;;;;17.10;5.00;;;14.60;87.90;;;;;;5461161;26;20019;-58
2024/04/13 06:14:51;;;;;;;12.98;4.82;;;14.70;88.00;;;;;;5460687;26;20066;-58
2024/04/13 06:17:17;;;;;;;13.65;5.13;;;14.70;88.10;;;;;;5460901;26;20005;-58
2024/04/13 06:19:44;;;;;;;28.77;5.93;;;14.70;88.20;;;;;;5462766;26;20003;-58
2024/04/13 06:22:09;;;;;;;34.70;6.35;;;14.70;88.30;;;;;;5460730;26;20024;-58
2024/04/13 06:24:35;;;;;;;30.58;6.22;;;14.70;88.40;;;;;;5462665;26;19999;-58
2024/04/13 06:27:01;;;;;;;27.98;6.10;;;14.60;88.50;;;;;;5460626;26;19999;-58
2024/04/13 06:29:27;;;;;;;34.58;6.57;;;14.70;88.50;;;;;;5490930;26;20014;-58
2024/04/13 06:31:52;;;;;;;23.73;6.22;;;14.70;88.50;;;;;;5462564;26;20329;-58
2024/04/13 06:34:18;;;;;;;39.65;6.07;;;14.70;88.60;;;;;;5490886;26;20002;-58
2024/04/13 06:36:44;;;;;;;27.48;6.25;;;14.70;88.70;;;;;;5460486;26;20022;-58
2024/04/13 06:39:14;;;;;;;28.58;6.57;;;14.70;88.90;;;;;;5460409;26;20013;-59
2024/04/13 06:41:40;;;;;;;36.15;7.35;;;14.70;89.00;;;;;;5462483;26;19995;-58
2024/04/13 06:44:05;;;;;;;25.83;7.40;;;14.70;89.10;;;;;;5430434;26;20003;-58
2024/04/13 06:46:31;;;;;;;34.88;6.82;;;14.70;89.20;;;;;;5462292;26;20012;-58
2024/04/13 06:48:57;;;;;;;37.55;7.78;;;14.70;89.20;;;;;;5461869;26;20013;-58
2024/04/13 06:51:22;;;;;;;33.20;7.40;;;14.70;89.10;;;;;;5462011;26;19999;-58
2024/04/13 06:53:48;;;;;;;29.00;6.57;;;14.70;89.10;;;;;;5462270;26;19995;-58
2024/04/13 06:56:14;;;;;;;29.80;7.15;;;14.70;89.10;;;;;;5460145;26;19995;-58
2024/04/13 06:58:40;;;;;;;38.33;7.05;;;14.70;89.00;;;;;;5461874;26;20018;-58
2024/04/13 07:01:06;;;;;;;38.42;7.40;;;14.70;89.10;;;;;;5461959;26;19991;-58
2024/04/13 07:03:31;;;;;;;28.63;6.53;;;14.70;89.10;;;;;;5460127;26;20448;-58
2024/04/13 07:05:58;;;;;;;26.58;7.00;;;14.70;89.00;;;;;;5492988;26;20019;-58
2024/04/13 07:08:24;;;;;;;38.03;7.57;;;14.70;88.90;;;;;;5465330;26;20018;-58
2024/04/13 07:10:50;;;;;;;31.73;7.50;;;14.70;88.90;;;;;;5463549;26;20002;-58
2024/04/13 07:13:16;;;;;;;40.63;7.32;;;14.70;88.90;;;;;;5463511;26;19991;-58
2024/04/13 07:15:41;;;;;;;30.38;7.15;;;14.70;88.90;;;;;;5493784;26;20071;-58
2024/04/13 07:18:08;;;;;;;29.23;6.72;;;14.70;88.90;;;;;;5465306;26;19999;-58
2024/04/13 07:20:35;;;;;;;32.03;7.32;;;14.70;88.80;;;;;;5465349;26;20026;-58
2024/04/13 07:23:00;;;;;;;25.95;6.55;;;14.70;88.80;;;;;;5463458;26;19991;-58
2024/04/13 07:25:26;;;;;;;21.17;6.53;;;14.70;88.80;;;;;;5465225;26;20003;-58
2024/04/13 07:27:52;;;;;;;22.15;6.88;;;14.80;88.70;;;;;;5433550;26;20037;-58
2024/04/13 07:30:17;;;;;;;20.67;6.55;;;14.70;88.70;;;;;;5463097;26;19999;-58
2024/04/13 07:32:43;;;;;;;23.85;6.47;;;14.70;88.70;;;;;;5463341;26;20044;-58
2024/04/13 07:35:08;;;;;;;21.98;6.40;;;14.70;88.70;;;;;;5463127;26;20037;-58
2024/04/13 07:37:34;;;;;;;26.77;6.88;;;14.70;88.70;;;;;;5463261;26;20424;-58
2024/04/13 07:40:00;;;;;;;25.50;7.00;;;14.70;88.70;;;;;;5493465;26;20108;-58
2024/04/13 07:42:26;;;;;;;32.85;6.90;;;14.80;88.80;;;;;;5463114;26;20301;-58
2024/04/13 07:44:52;;;;;;;17.80;6.72;;;14.80;88.90;;;;;;5464863;26;20010;-58
2024/04/13 07:47:18;;;;;;;25.25;6.28;;;14.70;88.80;;;;;;5464994;26;20006;-58
2024/04/13 07:49:43;;;;;;;24.77;6.63;;;14.70;88.80;;;;;;5464804;26;20489;-58
2024/04/13 07:52:09;;;;;;;13.90;5.90;;;14.70;88.80;;;;;;5465443;26;20049;-59
2024/04/13 07:54:35;;;;;;;22.95;6.10;;;14.70;88.90;;;;;;5493844;26;20094;-58
2024/04/13 07:57:01;;;;;;;24.10;6.22;;;14.80;88.90;;;;;;5464936;26;19991;-58
2024/04/13 07:59:26;;;;;;;17.35;5.47;;;14.80;89.00;;;;;;5493170;26;20047;-58
2024/04/13 08:01:52;;;;;;;23.33;6.13;;;14.80;88.90;;;;;;5463039;26;20037;-58
2024/04/13 08:04:18;;;;;;;17.60;5.80;;;14.80;89.00;;;;;;5493134;26;20014;-58
2024/04/13 08:06:43;;;;;;;14.15;4.97;;;14.80;89.10;;;;;;5458172;26;20385;-58
2024/04/13 08:09:09;;;;;;;19.63;6.03;;;14.80;89.30;;;;;;5461718;26;20010;-58
2024/04/13 08:11:34;;;;;;;19.42;6.22;;;14.80;89.80;;;;;;5428479;26;19991;-58
2024/04/13 08:14:00;;;;;;;15.52;6.55;;;14.80;90.40;;;;;;5426330;26;20082;-58
2024/04/13 08:16:26;;;;;;;15.65;6.30;;;14.90;90.70;;;;;;5396063;26;19998;-58
2024/04/13 08:18:51;;;;;;;27.15;7.80;;;14.80;91.00;;;;;;5453800;26;20001;-59
2024/04/13 08:21:17;;;;;;;36.40;7.10;;;14.90;91.40;;;;;;5455729;26;20452;-58
2024/04/13 08:23:43;;;;;;;20.15;6.05;;;14.90;91.10;;;;;;5424765;26;19995;-58
2024/04/13 08:26:08;;;;;;;33.28;6.97;;;14.90;90.60;;;;;;5443776;26;20066;-58
2024/04/13 08:28:34;;;;;;;28.73;7.45;;;14.90;91.30;;;;;;5462283;26;20473;-58
2024/04/13 08:31:06;;;;;;;26.35;7.30;;;15.00;91.60;;;;;;5468587;26;20028;-58
2024/04/13 08:33:31;;;;;;;47.42;9.60;;;15.00;91.60;;;;;;5464618;26;20013;-58
2024/04/13 08:36:04;;;;;;;40.20;8.70;;;15.00;91.60;;;;;;5469477;26;19999;-58
2024/04/13 08:38:31;;;;;;;48.60;8.70;;;15.10;91.60;;;;;;5457404;26;19995;-58
2024/04/13 08:40:56;;;;;;;29.58;6.30;;;15.10;91.60;;;;;;5458520;26;20076;-58
2024/04/13 08:43:22;;;;;;;27.10;8.15;;;15.10;91.60;;;;;;5430112;26;20011;-58
2024/04/13 08:45:48;;;;;;;48.00;8.20;;;15.10;91.60;;;;;;5454810;26;20114;-58
2024/04/13 08:48:13;;;;;;;32.63;8.27;;;15.10;91.60;;;;;;5469241;26;20450;-58
2024/04/13 08:50:40;;;;;;;63.85;10.25;;;15.20;91.50;;;;;;5422639;26;20389;-58
2024/04/13 08:53:05;;;;;;;77.28;11.93;;;15.20;91.90;;;;;;5452626;26;20011;-58
2024/04/13 08:55:37;;;;;;;57.40;10.07;;;15.20;91.90;;;;;;5459815;26;20002;-58
2024/04/13 08:58:03;;;;;;;66.50;10.07;;;15.30;91.90;;;;;;5405372;26;19999;-58
2024/04/13 09:00:29;;;;;;;87.38;11.73;;;15.40;92.10;;;;;;5401001;26;20029;-58
2024/04/13 09:02:55;;;;;;;88.28;12.50;;;15.40;92.10;;;;;;5422783;26;20010;-58
2024/04/13 09:05:21;;;;;;;89.78;12.75;;;15.40;92.20;;;;;;5432151;26;19999;-58
2024/04/13 09:07:46;;;;;;;96.63;12.55;;;15.50;92.20;;;;;;5428122;26;20007;-58
2024/04/13 09:10:12;;;;;;;102.60;13.30;;;15.50;92.20;;;;;;5423725;26;19996;-58
2024/04/13 09:12:38;;;;;;;99.57;13.02;;;15.60;92.20;;;;;;5457869;26;20050;-58
2024/04/13 09:15:07;;;;;;;137.60;16.75;;;15.60;92.20;;;;;;5457994;26;19999;-58
2024/04/13 09:17:33;;;;;;;125.22;15.13;;;15.70;91.90;;;;;;5457845;26;20042;-58
2024/04/13 09:20:06;;;;;;;95.60;13.70;;;15.70;91.90;;;;;;5427390;26;19999;-58
2024/04/13 09:22:32;;;;;;;95.90;13.85;;;15.70;91.80;;;;;;5461456;26;20002;-58
2024/04/13 09:24:58;;;;;;;77.05;11.65;;;15.80;91.90;;;;;;5456165;26;20411;-58
2024/04/13 09:27:25;;;;;;;83.75;12.73;;;15.80;92.00;;;;;;5460665;26;19991;-58
2024/04/13 09:29:50;;;;;;;97.10;12.95;;;15.90;92.10;;;;;;5430359;26;20014;-58
2024/04/13 09:32:23;;;;;;;123.40;13.43;;;15.90;92.00;;;;;;5430830;26;19995;-58
2024/04/13 09:34:49;;;;;;;120.57;15.93;;;16.00;92.00;;;;;;5459811;26;20017;-57
2024/04/13 09:37:15;;;;;;;144.40;13.82;;;16.10;91.90;;;;;;5461319;26;20298;-58
2024/04/13 09:39:41;;;;;;;111.50;15.30;;;16.10;91.80;;;;;;5461412;26;20001;-58
2024/04/13 09:42:10;;;;;;;170.20;18.90;;;16.20;91.90;;;;;;5454219;26;20014;-58
2024/04/13 09:44:36;;;;;;;170.10;18.10;;;16.20;92.00;;;;;;5450539;26;20014;-58
2024/04/13 09:47:02;;;;;;;97.15;12.73;;;16.30;92.00;;;;;;5426931;26;20007;-58
2024/04/13 09:49:28;;;;;;;135.82;15.77;;;16.30;92.00;;;;;;5424824;26;20005;-58
2024/04/13 09:51:58;;;;;;;128.63;15.30;;;16.30;92.00;;;;;;5446597;26;20004;-58
2024/04/13 09:54:26;;;;;;;139.70;16.38;;;16.40;91.90;;;;;;5425439;26;19995;-58
2024/04/13 09:56:52;;;;;;;146.10;17.70;;;16.50;91.90;;;;;;5459159;26;20023;-58
2024/04/13 09:59:19;;;;;;;126.40;16.05;;;16.50;91.90;;;;;;5460468;26;20003;-58
2024/04/13 10:01:45;;;;;;;108.72;13.82;;;16.50;91.90;;;;;;5457894;26;20010;-58
2024/04/13 10:04:10;;;;;;;135.65;16.38;;;16.60;91.90;;;;;;5423759;26;19996;-58
2024/04/13 10:06:36;;;;;;;120.80;13.55;;;16.70;91.80;;;;;;5442522;26;20002;-58
2024/04/13 10:09:02;;;;;;;133.52;16.08;;;16.70;91.80;;;;;;5430888;26;20449;-58
2024/04/13 10:11:28;;;;;;;129.35;15.43;;;16.70;91.70;;;;;;5459601;26;20019;-57
2024/04/13 10:13:54;;;;;;;87.38;12.32;;;16.80;91.70;;;;;;5460300;26;20414;-58
2024/04/13 10:16:19;;;;;;;105.85;14.73;;;16.90;91.70;;;;;;5460530;26;19998;-57
2024/04/13 10:18:45;;;;;;;109.28;13.73;;;16.80;91.60;;;;;;5462488;26;20002;-57
2024/04/13 10:21:14;;;;;;;71.28;11.88;;;16.90;91.50;;;;;;5429847;26;20006;-58
2024/04/13 10:23:45;;;;;;;115.03;14.85;;;17.00;91.40;;;;;;5455348;26;20049;-59
2024/04/13 10:26:10;;;;;;;130.88;16.00;;;17.00;91.40;;;;;;5453171;26;20295;-58
2024/04/13 10:28:37;;;;;;;129.77;15.60;;;17.10;91.40;;;;;;5442809;26;19995;-58
2024/04/13 10:31:03;;;;;;;72.75;12.00;;;17.10;91.30;;;;;;5457736;26;20483;-58
2024/04/13 10:33:30;;;;;;;99.05;12.77;;;17.20;91.20;;;;;;5461387;26;20075;-58
2024/04/13 10:36:02;;;;;;;82.43;12.48;;;17.30;91.00;;;;;;5461659;26;20026;-58
2024/04/13 10:38:30;;;;;;;82.13;12.23;;;17.40;90.90;;;;;;5458127;26;20006;-58
2024/04/13 10:40:56;;;;;;;81.03;12.40;;;17.40;90.60;;;;;;5462873;26;20064;-58
2024/04/13 10:43:22;;;;;;;82.47;12.35;;;17.50;90.50;;;;;;5411460;26;20005;-58
2024/04/13 10:46:01;;;;;;;75.50;11.93;;;17.60;90.40;;;;;;5463258;26;20015;-58
2024/04/13 10:48:31;;;;;;;81.53;11.75;;;17.60;90.40;;;;;;5417364;26;20009;-58
2024/04/13 10:50:57;;;;;;;88.57;11.18;;;17.70;90.30;;;;;;5463469;26;20422;-58
2024/04/13 10:53:25;;;;;;;66.45;11.02;;;17.70;90.20;;;;;;5464173;26;20013;-58
2024/04/13 10:55:51;;;;;;;54.70;9.95;;;17.80;90.10;;;;;;5465654;26;19995;-58
2024/04/13 10:58:16;;;;;;;60.13;10.30;;;17.80;90.00;;;;;;5433490;26;19994;-58
2024/04/13 11:00:46;;;;;;;65.22;9.27;;;17.90;89.40;;;;;;5457592;26;20002;-59
2024/04/13 11:03:12;;;;;;;48.10;10.00;;;18.00;89.00;;;;;;5439735;26;20136;-58
2024/04/13 11:05:41;;;;;;;65.47;9.57;;;18.10;88.80;;;;;;5460935;26;20074;-58
2024/04/13 11:08:08;;;;;;;83.80;10.18;;;18.20;88.60;;;;;;5491309;26;20010;-58
2024/04/13 11:10:34;;;;;;;61.17;10.25;;;18.20;88.40;;;;;;5462211;26;19998;-58
2024/04/13 11:13:02;;;;;;;60.05;8.50;;;18.30;88.20;;;;;;5463327;26;20118;-58
2024/04/13 11:15:28;;;;;;;67.90;7.70;;;18.40;87.90;;;;;;5462135;26;20072;-58
2024/04/13 11:17:53;;;;;;;62.22;8.60;;;18.40;86.50;;;;;;5462798;26;19999;-58
2024/04/13 11:20:19;;;;;;;58.35;8.25;;;18.50;86.40;;;;;;5465296;26;20117;-58
2024/04/13 11:22:44;;;;;;;60.85;9.05;;;18.50;86.20;;;;;;5432049;26;20474;-58
2024/04/13 11:25:10;;;;;;;53.90;7.97;;;18.60;86.20;;;;;;5432717;26;20001;-58
2024/04/13 11:27:36;;;;;;;51.92;8.40;;;18.70;85.60;;;;;;5463194;26;19994;-58
2024/04/13 11:30:02;;;;;;;41.03;7.72;;;18.70;85.40;;;;;;5420435;26;20003;-58
2024/04/13 11:32:28;;;;;;;42.53;6.88;;;18.80;84.90;;;;;;5405362;26;20073;-58
2024/04/13 11:34:54;;;;;;;45.83;7.25;;;18.80;84.30;;;;;;5487383;26;19992;-58
2024/04/13 11:37:20;;;;;;;43.20;6.78;;;18.90;84.10;;;;;;5462774;26;20018;-58
2024/04/13 11:39:45;;;;;;;47.45;6.97;;;19.00;83.90;;;;;;5465482;26;20010;-58
2024/04/13 11:42:11;;;;;;;54.58;7.60;;;19.00;83.50;;;;;;5481935;26;20011;-58
2024/04/13 11:44:37;;;;;;;54.53;7.63;;;19.10;83.40;;;;;;5461965;26;20009;-58
2024/04/13 11:47:03;;;;;;;48.85;6.97;;;19.10;83.60;;;;;;5461661;26;20128;-58
2024/04/13 11:49:29;;;;;;;57.13;8.35;;;19.20;83.30;;;;;;5462078;26;19995;-58
2024/04/13 11:51:56;;;;;;;40.50;7.18;;;19.30;83.10;;;;;;5455482;26;19996;-58
2024/04/13 11:54:21;;;;;;;45.60;7.03;;;19.30;82.70;;;;;;5448885;26;19992;-58
2024/04/13 11:56:47;;;;;;;53.83;7.38;;;19.40;82.50;;;;;;5396893;26;20005;-58
2024/04/13 11:59:13;;;;;;;52.30;7.57;;;19.50;81.70;;;;;;5444210;26;19995;-58
2024/04/13 12:01:39;;;;;;;61.90;7.95;;;19.60;81.00;;;;;;5461450;26;19994;-58
2024/04/13 12:04:05;;;;;;;54.15;8.57;;;19.80;80.50;;;;;;5431075;26;20018;-58
2024/04/13 12:06:30;;;;;;;62.22;8.60;;;19.90;80.80;;;;;;5462605;26;20013;-58
2024/04/13 12:08:56;;;;;;;73.60;9.07;;;20.00;81.20;;;;;;5462337;26;20351;-58
2024/04/13 12:11:24;;;;;;;70.13;10.05;;;20.10;80.80;;;;;;5446987;26;20322;-58
2024/04/13 12:13:50;;;;;;;67.13;9.75;;;20.10;80.50;;;;;;5428626;26;20003;-58
2024/04/13 12:16:15;;;;;;;93.82;10.70;;;20.20;80.10;;;;;;5426714;26;19996;-58
2024/04/13 12:18:41;;;;;;;91.18;12.60;;;20.30;80.10;;;;;;5505157;26;20003;-58
2024/04/13 12:21:07;;;;;;;102.65;12.48;;;20.40;80.60;;;;;;5461804;26;20003;-58
2024/04/13 12:23:32;;;;;;;103.45;14.10;;;20.40;80.70;;;;;;5459317;26;20003;-59
2024/04/13 12:25:58;;;;;;;110.68;12.32;;;20.50;81.30;;;;;;5448443;26;19995;-58
2024/04/13 12:28:24;;;;;;;116.40;14.05;;;20.60;80.40;;;;;;5461751;26;20002;-58
2024/04/13 12:30:49;;;;;;;131.98;13.38;;;20.70;79.40;;;;;;5415076;26;19995;-58
2024/04/13 12:33:15;;;;;;;140.35;14.80;;;20.70;78.30;;;;;;5460735;26;20022;-58